createdAt,value
2022-07-31T00:00:16.636Z,14.91
2022-07-31T00:01:17.055Z,14.91
2022-07-31T00:02:16.874Z,14.88
2022-07-31T00:03:16.366Z,14.88
2022-07-31T00:04:16.918Z,14.79
2022-07-31T00:05:16.350Z,14.73
2022-07-31T00:06:16.801Z,14.72
2022-07-31T00:07:17.283Z,14.70
2022-07-31T00:08:16.785Z,14.73
2022-07-31T00:09:20.522Z,14.72
2022-07-31T00:10:16.649Z,14.70
2022-07-31T00:11:17.099Z,14.72
2022-07-31T00:12:16.930Z,14.69
2022-07-31T00:13:16.357Z,14.67
2022-07-31T00:14:16.771Z,14.73
2022-07-31T00:15:17.234Z,14.72
2022-07-31T00:16:17.148Z,14.74
2022-07-31T00:17:16.757Z,14.72
2022-07-31T00:18:17.189Z,14.74
2022-07-31T00:19:16.617Z,14.76
2022-07-31T00:20:17.055Z,14.73
2022-07-31T00:21:16.505Z,14.65
2022-07-31T00:22:17.177Z,14.62
2022-07-31T00:23:19.020Z,14.66
2022-07-31T00:24:16.544Z,14.66
2022-07-31T00:25:16.990Z,14.63
2022-07-31T00:26:16.448Z,14.67
2022-07-31T00:27:16.937Z,14.74
2022-07-31T00:28:16.352Z,14.83
2022-07-31T00:29:16.815Z,14.82
2022-07-31T00:30:17.284Z,14.80
2022-07-31T00:31:16.709Z,14.74
2022-07-31T00:32:17.280Z,14.74
2022-07-31T00:33:16.714Z,14.70
2022-07-31T00:34:17.138Z,14.65
2022-07-31T00:35:16.563Z,14.52
2022-07-31T00:36:17.045Z,14.48
2022-07-31T00:37:16.534Z,14.49
2022-07-31T00:38:27.068Z,14.49
2022-07-31T00:39:16.393Z,14.46
2022-07-31T00:40:16.849Z,14.43
2022-07-31T00:41:16.338Z,14.46
2022-07-31T00:42:16.799Z,14.45
2022-07-31T00:43:17.227Z,14.43
2022-07-31T00:44:16.685Z,14.43
2022-07-31T00:45:16.941Z,14.43
2022-07-31T00:46:16.531Z,14.39
2022-07-31T00:47:17.168Z,14.38
2022-07-31T00:48:16.316Z,14.39
2022-07-31T00:49:16.475Z,14.38
2022-07-31T00:50:17.013Z,14.39
2022-07-31T00:51:16.489Z,14.38
2022-07-31T00:52:16.781Z,14.38
2022-07-31T00:53:17.249Z,14.36
2022-07-31T00:54:22.313Z,14.36
2022-07-31T00:55:16.608Z,14.33
2022-07-31T00:56:17.084Z,14.29
2022-07-31T00:57:16.526Z,14.27
2022-07-31T00:58:16.942Z,14.24
2022-07-31T00:59:16.391Z,14.22
2022-07-31T01:00:17.283Z,14.21
2022-07-31T01:01:16.755Z,14.20
2022-07-31T01:02:16.518Z,14.20
2022-07-31T01:03:16.943Z,14.17
2022-07-31T01:04:16.393Z,14.17
2022-07-31T01:05:17.212Z,14.18
2022-07-31T01:06:16.669Z,14.14
2022-07-31T01:07:17.117Z,14.17
2022-07-31T01:08:16.582Z,14.17
2022-07-31T01:09:17.032Z,14.17
2022-07-31T01:10:16.509Z,14.10
2022-07-31T01:11:16.988Z,14.07
2022-07-31T01:12:16.381Z,14.05
2022-07-31T01:13:16.802Z,14.04
2022-07-31T01:14:17.218Z,14.05
2022-07-31T01:15:16.633Z,14.05
2022-07-31T01:16:17.066Z,14.07
2022-07-31T01:17:16.498Z,14.03
2022-07-31T01:18:16.926Z,14.04
2022-07-31T01:19:16.346Z,14.04
2022-07-31T01:20:16.809Z,14.08
2022-07-31T01:21:17.283Z,14.08
2022-07-31T01:22:32.851Z,14.07
2022-07-31T01:23:16.942Z,14.03
2022-07-31T01:24:16.434Z,14.00
2022-07-31T01:25:16.905Z,13.97
2022-07-31T01:26:16.350Z,13.98
2022-07-31T01:27:16.413Z,13.97
2022-07-31T01:28:16.842Z,14.00
2022-07-31T01:29:17.282Z,13.96
2022-07-31T01:30:16.718Z,13.98
2022-07-31T01:31:26.510Z,13.97
2022-07-31T01:32:16.593Z,14.03
2022-07-31T01:33:17.018Z,13.98
2022-07-31T01:34:16.441Z,13.98
2022-07-31T01:35:16.876Z,13.96
2022-07-31T01:36:16.361Z,13.94
2022-07-31T01:37:16.812Z,13.92
2022-07-31T01:38:17.292Z,13.93
2022-07-31T01:39:16.777Z,13.93
2022-07-31T01:40:17.278Z,13.90
2022-07-31T01:41:16.747Z,13.89
2022-07-31T01:42:16.575Z,13.86
2022-07-31T01:43:16.991Z,13.75
2022-07-31T01:44:16.440Z,13.72
2022-07-31T01:45:16.868Z,13.70
2022-07-31T01:46:16.300Z,13.67
2022-07-31T01:47:16.731Z,13.69
2022-07-31T01:48:17.171Z,13.67
2022-07-31T01:49:16.751Z,13.69
2022-07-31T01:50:43.414Z,13.70
2022-07-31T01:51:16.828Z,13.67
2022-07-31T01:52:16.388Z,13.67
2022-07-31T01:53:16.874Z,13.67
2022-07-31T01:54:16.335Z,13.65
2022-07-31T01:55:16.794Z,13.65
2022-07-31T01:56:17.261Z,13.60
2022-07-31T01:57:17.260Z,13.58
2022-07-31T01:58:16.307Z,13.55
2022-07-31T01:59:20.216Z,13.50
2022-07-31T02:00:33.350Z,13.49
2022-07-31T02:01:17.096Z,13.46
2022-07-31T02:02:16.636Z,13.48
2022-07-31T02:03:16.394Z,13.48
2022-07-31T02:04:16.654Z,13.50
2022-07-31T02:05:17.155Z,13.53
2022-07-31T02:06:16.650Z,13.49
2022-07-31T02:07:17.091Z,13.50
2022-07-31T02:08:16.560Z,13.50
2022-07-31T02:09:17.073Z,13.49
2022-07-31T02:10:16.563Z,13.48
2022-07-31T02:11:17.048Z,13.49
2022-07-31T02:12:16.799Z,13.50
2022-07-31T02:13:17.074Z,13.50
2022-07-31T02:14:16.516Z,13.52
2022-07-31T02:15:16.943Z,13.49
2022-07-31T02:16:16.366Z,13.53
2022-07-31T02:17:22.268Z,13.56
2022-07-31T02:18:17.251Z,13.53
2022-07-31T02:19:16.703Z,13.50
2022-07-31T02:20:17.224Z,13.50
2022-07-31T02:21:16.679Z,13.52
2022-07-31T02:22:16.554Z,13.50
2022-07-31T02:23:17.005Z,13.56
2022-07-31T02:24:16.495Z,13.67
2022-07-31T02:25:16.958Z,13.66
2022-07-31T02:26:16.386Z,13.62
2022-07-31T02:27:54.465Z,13.58
2022-07-31T02:28:16.278Z,13.52
2022-07-31T02:29:19.188Z,13.48
2022-07-31T02:30:16.673Z,13.42
2022-07-31T02:31:17.131Z,13.38
2022-07-31T02:32:17.059Z,13.37
2022-07-31T02:33:16.530Z,13.41
2022-07-31T02:34:16.987Z,13.37
2022-07-31T02:35:16.425Z,13.35
2022-07-31T02:36:16.910Z,13.35
2022-07-31T02:37:16.366Z,13.31
2022-07-31T02:38:17.054Z,13.25
2022-07-31T02:39:17.169Z,13.22
2022-07-31T02:40:16.602Z,13.20
2022-07-31T02:41:17.032Z,13.35
2022-07-31T02:42:16.735Z,13.31
2022-07-31T02:43:17.168Z,13.32
2022-07-31T02:44:16.626Z,13.32
2022-07-31T02:45:16.716Z,13.30
2022-07-31T02:46:17.129Z,13.32
2022-07-31T02:47:16.601Z,13.30
2022-07-31T02:48:17.086Z,13.32
2022-07-31T02:49:16.608Z,13.37
2022-07-31T02:50:17.478Z,13.37
2022-07-31T02:51:16.955Z,13.35
2022-07-31T02:52:17.163Z,13.37
2022-07-31T02:53:16.632Z,13.35
2022-07-31T02:54:17.068Z,13.34
2022-07-31T02:55:16.516Z,13.34
2022-07-31T02:56:16.930Z,13.34
2022-07-31T02:57:16.357Z,13.32
2022-07-31T02:58:16.787Z,13.25
2022-07-31T02:59:17.196Z,13.24
2022-07-31T03:00:16.634Z,13.21
2022-07-31T03:01:17.184Z,13.18
2022-07-31T03:02:16.713Z,13.21
2022-07-31T03:03:17.156Z,13.17
2022-07-31T03:04:16.597Z,13.20
2022-07-31T03:05:17.051Z,13.18
2022-07-31T03:06:16.544Z,13.18
2022-07-31T03:07:17.018Z,13.21
2022-07-31T03:08:16.469Z,13.20
2022-07-31T03:09:16.903Z,13.13
2022-07-31T03:10:16.347Z,13.07
2022-07-31T03:11:16.759Z,13.14
2022-07-31T03:12:16.352Z,13.13
2022-07-31T03:13:16.771Z,13.17
2022-07-31T03:14:17.205Z,13.15
2022-07-31T03:15:16.638Z,13.15
2022-07-31T03:16:17.079Z,13.14
2022-07-31T03:17:16.514Z,13.15
2022-07-31T03:18:17.000Z,13.17
2022-07-31T03:19:16.482Z,13.20
2022-07-31T03:20:16.923Z,13.28
2022-07-31T03:21:16.365Z,13.25
2022-07-31T03:22:17.114Z,13.25
2022-07-31T03:23:16.566Z,13.25
2022-07-31T03:24:17.033Z,13.24
2022-07-31T03:25:20.319Z,13.24
2022-07-31T03:26:16.732Z,13.22
2022-07-31T03:27:17.178Z,13.21
2022-07-31T03:28:16.596Z,13.21
2022-07-31T03:29:39.367Z,13.20
2022-07-31T03:30:16.547Z,13.14
2022-07-31T03:31:16.978Z,13.13
2022-07-31T03:32:17.006Z,13.11
2022-07-31T03:33:16.489Z,13.11
2022-07-31T03:34:16.952Z,13.11
2022-07-31T03:35:16.404Z,13.15
2022-07-31T03:36:16.908Z,13.10
2022-07-31T03:37:16.379Z,13.14
2022-07-31T03:38:38.476Z,13.13
2022-07-31T03:39:17.242Z,13.11
2022-07-31T03:40:16.682Z,13.11
2022-07-31T03:41:17.127Z,13.11
2022-07-31T03:42:19.094Z,13.13
2022-07-31T03:43:16.791Z,13.13
2022-07-31T03:44:17.243Z,13.13
2022-07-31T03:45:16.696Z,13.07
2022-07-31T03:46:17.170Z,13.06
2022-07-31T03:47:16.787Z,13.03
2022-07-31T03:48:16.517Z,13.00
2022-07-31T03:49:17.082Z,12.97
2022-07-31T03:50:16.642Z,12.93
2022-07-31T03:51:17.136Z,12.90
2022-07-31T03:52:16.787Z,12.83
2022-07-31T03:53:17.252Z,12.70
2022-07-31T03:54:16.696Z,12.76
2022-07-31T03:55:17.550Z,12.79
2022-07-31T03:56:16.983Z,12.79
2022-07-31T03:57:16.399Z,12.83
2022-07-31T03:58:16.391Z,12.82
2022-07-31T03:59:16.388Z,12.83
2022-07-31T04:00:17.082Z,12.88
2022-07-31T04:01:16.438Z,12.92
2022-07-31T04:02:18.720Z,12.94
2022-07-31T04:03:16.563Z,12.94
2022-07-31T04:04:17.017Z,12.96
2022-07-31T04:05:16.862Z,12.88
2022-07-31T04:06:16.353Z,12.87
2022-07-31T04:07:16.807Z,12.88
2022-07-31T04:08:17.269Z,12.87
2022-07-31T04:09:18.495Z,12.87
2022-07-31T04:10:16.586Z,12.88
2022-07-31T04:11:17.026Z,12.84
2022-07-31T04:12:17.200Z,12.86
2022-07-31T04:13:16.644Z,12.87
2022-07-31T04:14:17.078Z,12.88
2022-07-31T04:15:16.529Z,12.92
2022-07-31T04:16:16.982Z,12.97
2022-07-31T04:17:16.427Z,12.94
2022-07-31T04:18:16.880Z,12.99
2022-07-31T04:19:16.367Z,13.04
2022-07-31T04:20:16.844Z,13.02
2022-07-31T04:21:16.305Z,13.06
2022-07-31T04:22:16.896Z,13.08
2022-07-31T04:23:16.335Z,13.10
2022-07-31T04:24:17.122Z,13.15
2022-07-31T04:25:16.539Z,13.22
2022-07-31T04:26:19.779Z,13.21
2022-07-31T04:27:16.572Z,13.21
2022-07-31T04:28:16.996Z,13.24
2022-07-31T04:29:16.460Z,13.24
2022-07-31T04:30:16.889Z,13.31
2022-07-31T04:31:16.354Z,13.35
2022-07-31T04:32:16.828Z,13.39
2022-07-31T04:33:16.316Z,13.43
2022-07-31T04:34:16.762Z,13.52
2022-07-31T04:35:17.223Z,13.56
2022-07-31T04:36:29.123Z,13.63
2022-07-31T04:37:17.122Z,13.70
2022-07-31T04:38:16.570Z,13.80
2022-07-31T04:39:16.987Z,13.86
2022-07-31T04:40:16.420Z,13.87
2022-07-31T04:41:16.859Z,13.96
2022-07-31T04:42:16.671Z,13.97
2022-07-31T04:43:17.092Z,14.03
2022-07-31T04:44:16.519Z,14.10
2022-07-31T04:45:16.988Z,14.21
2022-07-31T04:46:17.437Z,14.25
2022-07-31T04:47:16.421Z,14.27
2022-07-31T04:48:16.871Z,14.33
2022-07-31T04:49:16.412Z,14.39
2022-07-31T04:50:17.034Z,14.42
2022-07-31T04:51:16.507Z,14.39
2022-07-31T04:52:17.252Z,14.38
2022-07-31T04:53:16.684Z,14.35
2022-07-31T04:54:17.117Z,14.36
2022-07-31T04:55:16.549Z,14.39
2022-07-31T04:56:16.965Z,14.40
2022-07-31T04:57:21.354Z,14.45
2022-07-31T04:58:16.586Z,14.45
2022-07-31T04:59:17.015Z,14.45
2022-07-31T05:00:16.483Z,14.48
2022-07-31T05:01:16.988Z,14.52
2022-07-31T05:02:16.515Z,14.59
2022-07-31T05:03:17.094Z,14.65
2022-07-31T05:04:16.576Z,14.70
2022-07-31T05:05:17.056Z,14.74
2022-07-31T05:06:16.539Z,14.79
2022-07-31T05:07:16.972Z,14.84
2022-07-31T05:08:16.391Z,14.88
2022-07-31T05:09:18.945Z,14.93
2022-07-31T05:10:16.913Z,15.02
2022-07-31T05:11:16.337Z,15.02
2022-07-31T05:12:17.001Z,15.07
2022-07-31T05:13:16.617Z,15.14
2022-07-31T05:14:17.182Z,15.11
2022-07-31T05:15:16.654Z,15.14
2022-07-31T05:16:17.106Z,15.17
2022-07-31T05:17:16.555Z,15.18
2022-07-31T05:18:17.004Z,15.25
2022-07-31T05:19:16.472Z,15.35
2022-07-31T05:20:16.911Z,15.45
2022-07-31T05:21:16.351Z,15.53
2022-07-31T05:22:17.126Z,15.60
2022-07-31T05:23:16.344Z,15.62
2022-07-31T05:24:16.791Z,15.60
2022-07-31T05:25:17.205Z,15.62
2022-07-31T05:26:16.610Z,15.60
2022-07-31T05:27:17.052Z,15.63
2022-07-31T05:28:16.503Z,15.62
2022-07-31T05:29:16.383Z,15.70
2022-07-31T05:30:16.840Z,15.64
2022-07-31T05:31:17.021Z,15.70
2022-07-31T05:32:17.222Z,15.70
2022-07-31T05:33:16.442Z,15.74
2022-07-31T05:34:16.887Z,15.77
2022-07-31T05:35:16.349Z,15.76
2022-07-31T05:36:16.831Z,15.77
2022-07-31T05:37:17.240Z,15.76
2022-07-31T05:38:16.679Z,15.74
2022-07-31T05:39:17.116Z,15.66
2022-07-31T05:40:16.572Z,15.67
2022-07-31T05:41:17.024Z,15.73
2022-07-31T05:42:16.386Z,15.74
2022-07-31T05:43:16.817Z,15.81
2022-07-31T05:44:17.263Z,15.81
2022-07-31T05:45:16.724Z,16.02
2022-07-31T05:46:17.213Z,16.12
2022-07-31T05:47:16.691Z,16.11
2022-07-31T05:48:17.127Z,16.15
2022-07-31T05:49:16.653Z,16.26
2022-07-31T05:50:16.290Z,16.40
2022-07-31T05:51:16.707Z,16.43
2022-07-31T05:52:16.431Z,16.46
2022-07-31T05:53:16.859Z,16.52
2022-07-31T05:54:16.281Z,16.47
2022-07-31T05:55:16.696Z,16.14
2022-07-31T05:56:17.140Z,16.02
2022-07-31T05:57:32.849Z,15.87
2022-07-31T05:58:17.065Z,15.84
2022-07-31T05:59:16.590Z,15.98
2022-07-31T06:00:17.051Z,16.15
2022-07-31T06:01:17.157Z,16.36
2022-07-31T06:02:17.164Z,16.46
2022-07-31T06:03:16.594Z,16.31
2022-07-31T06:04:17.058Z,16.29
2022-07-31T06:05:16.470Z,16.11
2022-07-31T06:06:17.062Z,16.12
2022-07-31T06:07:16.553Z,16.04
2022-07-31T06:08:16.971Z,15.94
2022-07-31T06:09:16.419Z,16.33
2022-07-31T06:10:16.881Z,16.47
2022-07-31T06:11:16.319Z,16.59
2022-07-31T06:12:16.341Z,16.67
2022-07-31T06:13:16.831Z,16.67
2022-07-31T06:14:16.290Z,16.53
2022-07-31T06:15:16.764Z,16.07
2022-07-31T06:16:17.211Z,16.02
2022-07-31T06:17:16.670Z,16.09
2022-07-31T06:18:17.108Z,16.11
2022-07-31T06:19:16.553Z,15.98
2022-07-31T06:20:16.984Z,16.11
2022-07-31T06:22:16.923Z,16.60
2022-07-31T06:23:22.515Z,16.83
2022-07-31T06:24:16.697Z,17.08
2022-07-31T06:25:16.392Z,17.35
2022-07-31T06:26:16.868Z,17.43
2022-07-31T06:27:22.090Z,17.60
2022-07-31T06:28:17.043Z,17.76
2022-07-31T06:29:16.921Z,17.84
2022-07-31T06:30:16.373Z,17.85
2022-07-31T06:31:16.854Z,17.89
2022-07-31T06:32:17.143Z,18.11
2022-07-31T06:33:17.209Z,18.09
2022-07-31T06:34:19.840Z,17.77
2022-07-31T06:35:16.472Z,17.95
2022-07-31T06:36:16.890Z,18.05
2022-07-31T06:37:16.315Z,17.89
2022-07-31T06:38:16.761Z,18.02
2022-07-31T06:39:17.187Z,18.16
2022-07-31T06:40:16.650Z,18.51
2022-07-31T06:41:16.611Z,18.66
2022-07-31T06:42:16.444Z,18.64
2022-07-31T06:43:17.164Z,18.67
2022-07-31T06:44:16.616Z,18.78
2022-07-31T06:45:29.987Z,18.82
2022-07-31T06:46:16.623Z,18.92
2022-07-31T06:47:17.130Z,19.03
2022-07-31T06:48:16.586Z,19.13
2022-07-31T06:49:17.038Z,19.13
2022-07-31T06:50:16.587Z,19.20
2022-07-31T06:51:31.101Z,19.27
2022-07-31T06:52:16.915Z,19.34
2022-07-31T06:53:16.329Z,19.48
2022-07-31T06:54:16.792Z,19.39
2022-07-31T06:55:17.233Z,19.54
2022-07-31T06:56:16.695Z,19.67
2022-07-31T06:57:17.187Z,19.19
2022-07-31T06:58:16.681Z,19.14
2022-07-31T06:59:18.044Z,19.41
2022-07-31T07:00:20.224Z,19.65
2022-07-31T07:01:16.501Z,19.67
2022-07-31T07:02:16.800Z,19.74
2022-07-31T07:03:17.214Z,19.84
2022-07-31T07:04:16.644Z,19.89
2022-07-31T07:05:17.067Z,19.41
2022-07-31T07:06:16.553Z,19.61
2022-07-31T07:07:16.968Z,19.17
2022-07-31T07:08:16.423Z,18.98
2022-07-31T07:09:16.846Z,18.78
2022-07-31T07:10:17.313Z,19.31
2022-07-31T07:11:16.783Z,19.86
2022-07-31T07:12:16.818Z,20.68
2022-07-31T07:13:16.531Z,20.95
2022-07-31T07:14:17.024Z,21.17
2022-07-31T07:15:16.509Z,21.30
2022-07-31T07:16:16.973Z,21.48
2022-07-31T07:17:16.449Z,21.20
2022-07-31T07:18:17.145Z,20.62
2022-07-31T07:19:16.569Z,21.13
2022-07-31T07:20:16.994Z,21.37
2022-07-31T07:21:16.416Z,21.85
2022-07-31T07:22:17.183Z,22.03
2022-07-31T07:23:17.199Z,22.20
2022-07-31T07:24:16.623Z,22.24
2022-07-31T07:25:17.074Z,22.27
2022-07-31T07:26:16.542Z,22.54
2022-07-31T07:27:16.991Z,22.61
2022-07-31T07:28:29.464Z,23.00
2022-07-31T07:29:16.504Z,23.38
2022-07-31T07:30:16.976Z,23.34
2022-07-31T07:31:16.444Z,23.19
2022-07-31T07:32:16.369Z,23.34
2022-07-31T07:33:40.290Z,23.51
2022-07-31T07:34:17.257Z,23.66
2022-07-31T07:35:16.670Z,23.51
2022-07-31T07:36:21.729Z,23.45
2022-07-31T07:37:16.996Z,23.31
2022-07-31T07:38:16.425Z,23.45
2022-07-31T07:39:16.864Z,23.44
2022-07-31T07:40:16.345Z,23.59
2022-07-31T07:41:18.299Z,23.68
2022-07-31T07:42:16.389Z,23.71
2022-07-31T07:43:16.848Z,23.75
2022-07-31T07:44:16.324Z,23.86
2022-07-31T07:45:16.767Z,23.97
2022-07-31T07:46:17.208Z,23.95
2022-07-31T07:47:16.751Z,23.03
2022-07-31T07:48:17.195Z,22.82
2022-07-31T07:49:16.650Z,23.38
2022-07-31T07:50:17.235Z,24.47
2022-07-31T07:51:16.650Z,25.64
2022-07-31T07:52:16.676Z,26.08
2022-07-31T07:53:17.274Z,26.75
2022-07-31T07:54:16.737Z,26.58
2022-07-31T07:55:17.186Z,26.76
2022-07-31T07:56:16.655Z,27.38
2022-07-31T07:57:17.138Z,27.55
2022-07-31T07:58:16.612Z,27.61
2022-07-31T07:59:17.046Z,27.55
2022-07-31T08:00:16.531Z,27.58
2022-07-31T08:01:17.046Z,27.76
2022-07-31T08:02:16.352Z,28.16
2022-07-31T08:03:47.841Z,28.19
2022-07-31T08:04:17.234Z,28.31
2022-07-31T08:05:16.644Z,28.85
2022-07-31T08:06:17.268Z,29.03
2022-07-31T08:07:16.696Z,29.28
2022-07-31T08:08:17.123Z,29.54
2022-07-31T08:09:16.571Z,29.85
2022-07-31T08:10:17.064Z,29.55
2022-07-31T08:11:16.870Z,29.44
2022-07-31T08:12:16.444Z,29.03
2022-07-31T08:13:16.892Z,28.97
2022-07-31T08:14:16.383Z,29.00
2022-07-31T08:15:16.840Z,29.38
2022-07-31T08:16:17.303Z,29.71
2022-07-31T08:17:16.736Z,29.93
2022-07-31T08:18:17.179Z,29.77
2022-07-31T08:19:16.624Z,29.89
2022-07-31T08:20:17.035Z,30.31
2022-07-31T08:21:16.472Z,30.87
2022-07-31T08:22:16.800Z,31.42
2022-07-31T08:23:18.089Z,31.64
2022-07-31T08:24:16.792Z,32.13
2022-07-31T08:25:17.291Z,31.87
2022-07-31T08:26:16.744Z,31.97
2022-07-31T08:27:16.959Z,31.44
2022-07-31T08:28:19.403Z,31.96
2022-07-31T08:29:16.554Z,32.13
2022-07-31T08:30:16.587Z,31.07
2022-07-31T08:31:17.002Z,31.04
2022-07-31T08:32:16.987Z,31.14
2022-07-31T08:33:16.417Z,31.09
2022-07-31T08:34:30.716Z,30.21
2022-07-31T08:35:16.639Z,30.04
2022-07-31T08:36:17.051Z,29.89
2022-07-31T08:37:50.730Z,29.49
2022-07-31T08:38:17.044Z,29.89
2022-07-31T08:39:17.527Z,30.47
2022-07-31T08:40:16.707Z,30.52
2022-07-31T08:41:17.170Z,30.55
2022-07-31T08:42:16.712Z,30.21
2022-07-31T08:43:31.408Z,28.52
2022-07-31T08:44:16.700Z,28.56
2022-07-31T08:45:17.166Z,28.55
2022-07-31T08:46:16.588Z,29.31
2022-07-31T08:47:17.003Z,29.72
2022-07-31T08:48:16.425Z,30.98
2022-07-31T08:49:16.877Z,31.80
2022-07-31T08:50:16.535Z,31.90
2022-07-31T08:51:16.503Z,32.02
2022-07-31T08:52:16.796Z,32.14
2022-07-31T08:53:17.247Z,31.90
2022-07-31T08:54:16.736Z,31.96
2022-07-31T08:55:24.504Z,31.94
2022-07-31T08:56:16.726Z,32.32
2022-07-31T08:57:17.179Z,32.51
2022-07-31T08:58:16.629Z,30.87
2022-07-31T08:59:17.211Z,32.26
2022-07-31T09:00:16.671Z,32.75
2022-07-31T09:01:17.286Z,32.58
2022-07-31T09:02:16.659Z,31.41
2022-07-31T09:03:17.090Z,31.77
2022-07-31T09:04:16.553Z,31.83
2022-07-31T09:05:17.622Z,32.63
2022-07-31T09:06:17.034Z,32.63
2022-07-31T09:07:16.481Z,33.47
2022-07-31T09:08:16.944Z,33.73
2022-07-31T09:09:16.443Z,32.78
2022-07-31T09:10:16.899Z,33.67
2022-07-31T09:11:16.371Z,34.53
2022-07-31T09:12:16.461Z,34.79
2022-07-31T09:13:17.042Z,34.77
2022-07-31T09:14:16.483Z,34.34
2022-07-31T09:15:16.940Z,34.59
2022-07-31T09:16:16.351Z,34.58
2022-07-31T09:17:16.803Z,34.38
2022-07-31T09:18:17.276Z,34.50
2022-07-31T09:19:51.469Z,34.62
2022-07-31T09:20:17.199Z,34.61
2022-07-31T09:21:16.614Z,33.89
2022-07-31T09:22:17.066Z,32.80
2022-07-31T09:23:16.537Z,33.33
2022-07-31T09:24:17.012Z,33.37
2022-07-31T09:25:16.495Z,33.65
2022-07-31T09:26:16.960Z,33.88
2022-07-31T09:27:16.413Z,34.14
2022-07-31T09:28:16.869Z,33.05
2022-07-31T09:29:17.071Z,32.24
2022-07-31T09:30:16.493Z,31.87
2022-07-31T09:31:16.959Z,32.54
2022-07-31T09:32:16.530Z,32.90
2022-07-31T09:33:16.944Z,32.83
2022-07-31T09:34:16.369Z,32.20
2022-07-31T09:35:16.793Z,32.42
2022-07-31T09:36:17.238Z,32.59
2022-07-31T09:37:16.673Z,32.16
2022-07-31T09:38:17.096Z,32.71
2022-07-31T09:39:20.465Z,33.06
2022-07-31T09:40:20.940Z,32.83
2022-07-31T09:41:26.768Z,32.90
2022-07-31T09:42:17.265Z,33.34
2022-07-31T09:43:16.454Z,33.67
2022-07-31T09:44:16.963Z,33.88
2022-07-31T09:45:16.316Z,33.40
2022-07-31T09:46:16.774Z,33.00
2022-07-31T09:47:17.191Z,33.07
2022-07-31T09:48:26.184Z,33.42
2022-07-31T09:49:16.987Z,33.67
2022-07-31T09:50:16.661Z,33.54
2022-07-31T09:51:17.073Z,33.86
2022-07-31T09:52:16.510Z,33.00
2022-07-31T09:53:16.968Z,33.33
2022-07-31T09:54:16.420Z,33.50
2022-07-31T09:55:17.123Z,33.13
2022-07-31T09:56:16.677Z,33.58
2022-07-31T09:57:17.156Z,34.24
2022-07-31T09:58:16.631Z,34.31
2022-07-31T09:59:17.101Z,34.26
2022-07-31T10:00:17.331Z,34.46
2022-07-31T10:01:16.958Z,34.68
2022-07-31T10:02:16.796Z,34.65
2022-07-31T10:03:17.208Z,35.05
2022-07-31T10:04:16.651Z,35.65
2022-07-31T10:05:17.084Z,35.54
2022-07-31T10:06:16.711Z,35.19
2022-07-31T10:07:31.586Z,34.92
2022-07-31T10:08:17.242Z,35.19
2022-07-31T10:09:16.687Z,35.17
2022-07-31T10:10:17.180Z,34.19
2022-07-31T10:11:16.884Z,35.13
2022-07-31T10:12:17.271Z,35.29
2022-07-31T10:13:16.739Z,34.48
2022-07-31T10:14:17.203Z,34.62
2022-07-31T10:15:16.716Z,34.81
2022-07-31T10:16:17.225Z,34.81
2022-07-31T10:17:16.658Z,34.03
2022-07-31T10:18:17.080Z,34.69
2022-07-31T10:19:16.494Z,34.91
2022-07-31T10:20:16.921Z,35.48
2022-07-31T10:21:16.337Z,35.91
2022-07-31T10:22:16.800Z,36.55
2022-07-31T10:23:17.247Z,36.40
2022-07-31T10:24:16.694Z,36.32
2022-07-31T10:25:17.201Z,36.12
2022-07-31T10:26:16.673Z,35.74
2022-07-31T10:27:17.685Z,35.78
2022-07-31T10:28:16.747Z,35.68
2022-07-31T10:29:17.204Z,35.20
2022-07-31T10:30:16.649Z,34.36
2022-07-31T10:31:17.089Z,34.57
2022-07-31T10:32:16.942Z,34.89
2022-07-31T10:33:41.155Z,35.16
2022-07-31T10:34:16.874Z,35.67
2022-07-31T10:35:16.308Z,36.37
2022-07-31T10:36:16.745Z,36.98
2022-07-31T10:37:17.168Z,36.41
2022-07-31T10:38:16.595Z,36.43
2022-07-31T10:39:17.064Z,36.43
2022-07-31T10:40:16.511Z,36.27
2022-07-31T10:41:16.952Z,35.87
2022-07-31T10:42:16.711Z,36.05
2022-07-31T10:43:17.174Z,35.89
2022-07-31T10:44:16.627Z,36.02
2022-07-31T10:45:17.086Z,36.23
2022-07-31T10:46:16.508Z,36.68
2022-07-31T10:47:16.928Z,36.67
2022-07-31T10:48:16.353Z,35.60
2022-07-31T10:49:16.788Z,35.25
2022-07-31T10:50:16.393Z,34.09
2022-07-31T10:51:16.857Z,33.45
2022-07-31T10:52:16.592Z,33.55
2022-07-31T10:53:17.043Z,32.24
2022-07-31T10:54:16.525Z,32.10
2022-07-31T10:55:16.907Z,32.10
2022-07-31T10:56:16.352Z,32.50
2022-07-31T10:57:16.814Z,32.79
2022-07-31T10:58:17.290Z,33.16
2022-07-31T10:59:16.738Z,33.37
2022-07-31T11:00:17.187Z,33.50
2022-07-31T11:01:17.481Z,33.65
2022-07-31T11:02:16.887Z,34.04
2022-07-31T11:03:16.313Z,34.43
2022-07-31T11:04:16.727Z,34.23
2022-07-31T11:05:17.186Z,33.62
2022-07-31T11:06:16.603Z,33.64
2022-07-31T11:07:17.053Z,33.30
2022-07-31T11:08:16.484Z,33.99
2022-07-31T11:09:16.924Z,33.92
2022-07-31T11:10:16.379Z,33.65
2022-07-31T11:11:16.980Z,32.51
2022-07-31T11:12:17.163Z,31.61
2022-07-31T11:13:16.618Z,31.69
2022-07-31T11:14:17.084Z,31.92
2022-07-31T11:15:16.546Z,31.55
2022-07-31T11:16:17.000Z,31.61
2022-07-31T11:17:16.430Z,31.34
2022-07-31T11:18:21.865Z,32.21
2022-07-31T11:19:17.179Z,32.68
2022-07-31T11:20:16.645Z,33.16
2022-07-31T11:21:37.444Z,33.33
2022-07-31T11:22:30.484Z,33.37
2022-07-31T11:23:16.683Z,33.10
2022-07-31T11:24:17.179Z,33.52
2022-07-31T11:25:16.661Z,32.79
2022-07-31T11:26:17.141Z,32.31
2022-07-31T11:27:17.175Z,32.24
2022-07-31T11:28:16.624Z,32.57
2022-07-31T11:29:58.420Z,33.33
2022-07-31T11:30:16.549Z,33.86
2022-07-31T11:31:16.976Z,34.16
2022-07-31T11:32:16.391Z,34.23
2022-07-31T11:33:17.010Z,34.13
2022-07-31T11:34:16.461Z,33.62
2022-07-31T11:35:16.965Z,33.88
2022-07-31T11:36:16.392Z,33.33
2022-07-31T11:37:16.851Z,33.73
2022-07-31T11:38:16.292Z,34.19
2022-07-31T11:39:16.760Z,34.59
2022-07-31T11:40:16.794Z,34.36
2022-07-31T11:41:17.116Z,34.06
2022-07-31T11:42:17.048Z,33.41
2022-07-31T11:43:25.898Z,33.35
2022-07-31T11:44:16.950Z,33.95
2022-07-31T11:45:16.810Z,33.14
2022-07-31T11:46:16.761Z,33.41
2022-07-31T11:47:56.033Z,33.34
2022-07-31T11:48:16.885Z,34.04
2022-07-31T11:49:17.034Z,34.03
2022-07-31T11:50:16.566Z,33.59
2022-07-31T11:51:16.999Z,33.34
2022-07-31T11:52:30.563Z,33.51
2022-07-31T11:53:17.155Z,33.20
2022-07-31T11:54:16.621Z,32.89
2022-07-31T11:55:17.126Z,33.17
2022-07-31T11:56:16.635Z,33.34
2022-07-31T11:57:17.132Z,33.64
2022-07-31T11:58:16.588Z,33.25
2022-07-31T11:59:36.033Z,33.35
2022-07-31T12:00:26.479Z,32.76
2022-07-31T12:01:16.606Z,32.50
2022-07-31T12:02:16.641Z,32.41
2022-07-31T12:03:17.101Z,31.72
2022-07-31T12:04:16.543Z,31.24
2022-07-31T12:05:17.003Z,31.00
2022-07-31T12:06:16.591Z,30.86
2022-07-31T12:07:17.036Z,30.31
2022-07-31T12:08:16.511Z,30.39
2022-07-31T12:10:00.005Z,30.01
2022-07-31T12:10:16.578Z,30.32
2022-07-31T12:11:17.085Z,30.55
2022-07-31T12:12:17.103Z,30.44
2022-07-31T12:13:16.586Z,30.35
2022-07-31T12:14:17.034Z,30.30
2022-07-31T12:15:16.462Z,29.89
2022-07-31T12:16:16.904Z,29.93
2022-07-31T12:17:16.326Z,29.82
2022-07-31T12:18:16.742Z,29.58
2022-07-31T12:19:17.199Z,29.18
2022-07-31T12:20:29.943Z,29.07
2022-07-31T12:21:16.854Z,28.89
2022-07-31T12:22:16.693Z,28.78
2022-07-31T12:23:38.934Z,28.71
2022-07-31T12:24:16.563Z,28.52
2022-07-31T12:25:17.027Z,28.39
2022-07-31T12:26:16.492Z,28.24
2022-07-31T12:27:16.971Z,28.38
2022-07-31T12:28:16.458Z,28.39
2022-07-31T12:29:16.893Z,28.47
2022-07-31T12:30:16.321Z,28.61
2022-07-31T12:31:16.762Z,28.34
2022-07-31T12:32:16.418Z,28.31
2022-07-31T12:33:16.876Z,28.28
2022-07-31T12:34:16.305Z,28.38
2022-07-31T12:35:16.747Z,28.37
2022-07-31T12:36:17.178Z,28.45
2022-07-31T12:37:16.629Z,28.76
2022-07-31T12:38:37.666Z,28.94
2022-07-31T12:39:16.587Z,29.03
2022-07-31T12:40:17.043Z,29.14
2022-07-31T12:41:16.507Z,28.94
2022-07-31T12:42:17.123Z,28.86
2022-07-31T12:43:16.625Z,28.72
2022-07-31T12:44:21.500Z,28.49
2022-07-31T12:45:18.595Z,28.44
2022-07-31T12:46:16.990Z,28.42
2022-07-31T12:47:16.418Z,28.39
2022-07-31T12:48:16.844Z,28.45
2022-07-31T12:49:17.305Z,28.62
2022-07-31T12:50:16.831Z,28.73
2022-07-31T12:51:17.278Z,28.76
2022-07-31T12:52:16.844Z,28.90
2022-07-31T12:53:16.288Z,29.00